sensor_id;sensor_type;location;lat;lon;timestamp;P1;durP1;ratioP1;P2;durP2;ratioP2
28343;SDS011;15597;50.914;6.638;2023-04-25T00:00:41;8.20;;;2.72;;
28343;SDS011;15597;50.914;6.638;2023-04-25T00:03:06;12.98;;;3.03;;
28343;SDS011;15597;50.914;6.638;2023-04-25T00:05:34;10.63;;;2.72;;
28343;SDS011;15597;50.914;6.638;2023-04-25T00:07:59;12.05;;;3.10;;
28343;SDS011;15597;50.914;6.638;2023-04-25T00:10:25;7.18;;;2.38;;
28343;SDS011;15597;50.914;6.638;2023-04-25T00:12:51;5.65;;;2.03;;
28343;SDS011;15597;50.914;6.638;2023-04-25T00:15:16;14.43;;;2.78;;
28343;SDS011;15597;50.914;6.638;2023-04-25T00:17:42;14.15;;;2.90;;
28343;SDS011;15597;50.914;6.638;2023-04-25T00:20:08;11.10;;;2.75;;
28343;SDS011;15597;50.914;6.638;2023-04-25T00:22:35;12.07;;;3.17;;
28343;SDS011;15597;50.914;6.638;2023-04-25T00:25:03;16.02;;;3.85;;
28343;SDS011;15597;50.914;6.638;2023-04-25T00:27:30;10.23;;;3.10;;
28343;SDS011;15597;50.914;6.638;2023-04-25T00:29:55;10.98;;;2.72;;
28343;SDS011;15597;50.914;6.638;2023-04-25T00:32:20;14.07;;;3.40;;
28343;SDS011;15597;50.914;6.638;2023-04-25T00:34:46;13.35;;;3.38;;
28343;SDS011;15597;50.914;6.638;2023-04-25T00:37:11;8.93;;;2.35;;
28343;SDS011;15597;50.914;6.638;2023-04-25T00:39:37;6.35;;;2.20;;
28343;SDS011;15597;50.914;6.638;2023-04-25T00:42:03;7.15;;;2.38;;
28343;SDS011;15597;50.914;6.638;2023-04-25T00:44:30;12.05;;;2.63;;
28343;SDS011;15597;50.914;6.638;2023-04-25T00:46:57;9.57;;;2.65;;
28343;SDS011;15597;50.914;6.638;2023-04-25T00:49:23;13.88;;;2.83;;
28343;SDS011;15597;50.914;6.638;2023-04-25T00:51:49;10.10;;;3.08;;
28343;SDS011;15597;50.914;6.638;2023-04-25T00:54:15;5.90;;;2.40;;
28343;SDS011;15597;50.914;6.638;2023-04-25T00:56:41;10.02;;;2.83;;
28343;SDS011;15597;50.914;6.638;2023-04-25T00:59:07;8.18;;;2.40;;
28343;SDS011;15597;50.914;6.638;2023-04-25T01:01:34;8.05;;;2.38;;
28343;SDS011;15597;50.914;6.638;2023-04-25T01:04:00;10.25;;;2.72;;
28343;SDS011;15597;50.914;6.638;2023-04-25T01:06:26;13.23;;;3.15;;
28343;SDS011;15597;50.914;6.638;2023-04-25T01:08:52;10.25;;;2.53;;
28343;SDS011;15597;50.914;6.638;2023-04-25T01:11:18;7.65;;;2.33;;
28343;SDS011;15597;50.914;6.638;2023-04-25T01:13:44;12.18;;;2.97;;
28343;SDS011;15597;50.914;6.638;2023-04-25T01:16:09;7.88;;;2.40;;
28343;SDS011;15597;50.914;6.638;2023-04-25T01:18:36;7.22;;;2.30;;
28343;SDS011;15597;50.914;6.638;2023-04-25T01:21:10;8.18;;;2.70;;
28343;SDS011;15597;50.914;6.638;2023-04-25T01:23:38;12.90;;;3.08;;
28343;SDS011;15597;50.914;6.638;2023-04-25T01:26:08;11.25;;;2.83;;
28343;SDS011;15597;50.914;6.638;2023-04-25T01:28:35;11.60;;;3.00;;
28343;SDS011;15597;50.914;6.638;2023-04-25T01:31:01;7.43;;;2.63;;
28343;SDS011;15597;50.914;6.638;2023-04-25T01:33:27;7.38;;;2.50;;
28343;SDS011;15597;50.914;6.638;2023-04-25T01:35:53;8.55;;;3.10;;
28343;SDS011;15597;50.914;6.638;2023-04-25T01:38:19;10.55;;;3.63;;
28343;SDS011;15597;50.914;6.638;2023-04-25T01:40:45;8.85;;;2.58;;
28343;SDS011;15597;50.914;6.638;2023-04-25T01:43:12;14.77;;;3.22;;
28343;SDS011;15597;50.914;6.638;2023-04-25T01:45:39;10.23;;;2.55;;
28343;SDS011;15597;50.914;6.638;2023-04-25T01:48:10;11.13;;;2.85;;
28343;SDS011;15597;50.914;6.638;2023-04-25T01:50:38;8.52;;;3.10;;
28343;SDS011;15597;50.914;6.638;2023-04-25T01:53:05;13.13;;;3.60;;
28343;SDS011;15597;50.914;6.638;2023-04-25T01:55:31;9.90;;;2.78;;
28343;SDS011;15597;50.914;6.638;2023-04-25T01:58:10;9.23;;;3.45;;
28343;SDS011;15597;50.914;6.638;2023-04-25T02:01:16;10.93;;;3.35;;
28343;SDS011;15597;50.914;6.638;2023-04-25T02:03:48;9.88;;;3.35;;
28343;SDS011;15597;50.914;6.638;2023-04-25T02:06:28;10.27;;;3.15;;
28343;SDS011;15597;50.914;6.638;2023-04-25T02:08:56;5.93;;;2.20;;
28343;SDS011;15597;50.914;6.638;2023-04-25T02:11:21;13.02;;;3.35;;
28343;SDS011;15597;50.914;6.638;2023-04-25T02:13:56;7.35;;;2.63;;
28343;SDS011;15597;50.914;6.638;2023-04-25T02:16:51;10.38;;;2.65;;
28343;SDS011;15597;50.914;6.638;2023-04-25T02:19:17;10.20;;;3.28;;
28343;SDS011;15597;50.914;6.638;2023-04-25T02:21:42;7.03;;;2.47;;
28343;SDS011;15597;50.914;6.638;2023-04-25T02:24:10;12.60;;;3.42;;
28343;SDS011;15597;50.914;6.638;2023-04-25T02:26:35;9.13;;;3.13;;
28343;SDS011;15597;50.914;6.638;2023-04-25T02:29:01;10.55;;;2.63;;
28343;SDS011;15597;50.914;6.638;2023-04-25T02:31:27;8.70;;;2.50;;
28343;SDS011;15597;50.914;6.638;2023-04-25T02:33:53;9.02;;;2.70;;
28343;SDS011;15597;50.914;6.638;2023-04-25T02:36:18;5.88;;;2.30;;
28343;SDS011;15597;50.914;6.638;2023-04-25T02:38:44;10.13;;;3.28;;
28343;SDS011;15597;50.914;6.638;2023-04-25T02:41:09;5.88;;;2.53;;
28343;SDS011;15597;50.914;6.638;2023-04-25T02:43:35;10.07;;;3.08;;
28343;SDS011;15597;50.914;6.638;2023-04-25T02:46:00;8.60;;;3.25;;
28343;SDS011;15597;50.914;6.638;2023-04-25T02:48:26;10.05;;;3.58;;
28343;SDS011;15597;50.914;6.638;2023-04-25T02:50:52;6.50;;;2.35;;
28343;SDS011;15597;50.914;6.638;2023-04-25T02:53:17;11.07;;;4.22;;
28343;SDS011;15597;50.914;6.638;2023-04-25T02:55:48;12.75;;;3.88;;
28343;SDS011;15597;50.914;6.638;2023-04-25T02:58:13;9.25;;;2.90;;
28343;SDS011;15597;50.914;6.638;2023-04-25T03:00:46;9.88;;;3.28;;
28343;SDS011;15597;50.914;6.638;2023-04-25T03:03:12;11.90;;;3.70;;
28343;SDS011;15597;50.914;6.638;2023-04-25T03:05:37;8.80;;;2.90;;
28343;SDS011;15597;50.914;6.638;2023-04-25T03:08:03;13.80;;;3.42;;
28343;SDS011;15597;50.914;6.638;2023-04-25T03:10:30;8.27;;;3.33;;
28343;SDS011;15597;50.914;6.638;2023-04-25T03:13:00;9.13;;;2.83;;
28343;SDS011;15597;50.914;6.638;2023-04-25T03:15:26;10.85;;;3.28;;
28343;SDS011;15597;50.914;6.638;2023-04-25T03:17:51;11.85;;;3.63;;
28343;SDS011;15597;50.914;6.638;2023-04-25T03:20:17;15.07;;;4.00;;
28343;SDS011;15597;50.914;6.638;2023-04-25T03:22:43;9.30;;;3.00;;
28343;SDS011;15597;50.914;6.638;2023-04-25T03:25:09;8.70;;;3.22;;
28343;SDS011;15597;50.914;6.638;2023-04-25T03:27:35;9.38;;;2.60;;
28343;SDS011;15597;50.914;6.638;2023-04-25T03:30:01;12.82;;;3.80;;
28343;SDS011;15597;50.914;6.638;2023-04-25T03:32:27;8.20;;;2.58;;
28343;SDS011;15597;50.914;6.638;2023-04-25T03:34:53;8.00;;;2.65;;
28343;SDS011;15597;50.914;6.638;2023-04-25T03:37:19;12.68;;;3.58;;
28343;SDS011;15597;50.914;6.638;2023-04-25T03:39:45;8.07;;;2.42;;
28343;SDS011;15597;50.914;6.638;2023-04-25T03:42:10;10.23;;;4.10;;
28343;SDS011;15597;50.914;6.638;2023-04-25T03:44:36;6.30;;;2.50;;
28343;SDS011;15597;50.914;6.638;2023-04-25T03:47:01;8.55;;;3.35;;
28343;SDS011;15597;50.914;6.638;2023-04-25T03:49:28;10.18;;;3.30;;
28343;SDS011;15597;50.914;6.638;2023-04-25T03:51:59;9.23;;;2.60;;
28343;SDS011;15597;50.914;6.638;2023-04-25T03:54:26;8.23;;;2.90;;
28343;SDS011;15597;50.914;6.638;2023-04-25T03:57:01;9.55;;;3.20;;
28343;SDS011;15597;50.914;6.638;2023-04-25T03:59:30;12.93;;;3.42;;
28343;SDS011;15597;50.914;6.638;2023-04-25T04:01:55;13.10;;;3.40;;
28343;SDS011;15597;50.914;6.638;2023-04-25T04:04:21;7.97;;;2.92;;
28343;SDS011;15597;50.914;6.638;2023-04-25T04:06:47;6.43;;;2.60;;
28343;SDS011;15597;50.914;6.638;2023-04-25T04:09:18;9.45;;;3.55;;
28343;SDS011;15597;50.914;6.638;2023-04-25T04:11:45;8.18;;;2.88;;
28343;SDS011;15597;50.914;6.638;2023-04-25T04:14:11;13.05;;;3.70;;
28343;SDS011;15597;50.914;6.638;2023-04-25T04:16:40;15.48;;;4.22;;
28343;SDS011;15597;50.914;6.638;2023-04-25T04:19:08;10.60;;;3.13;;
28343;SDS011;15597;50.914;6.638;2023-04-25T04:21:34;10.52;;;3.30;;
28343;SDS011;15597;50.914;6.638;2023-04-25T04:24:00;8.65;;;2.88;;
28343;SDS011;15597;50.914;6.638;2023-04-25T04:26:28;13.52;;;4.03;;
28343;SDS011;15597;50.914;6.638;2023-04-25T04:29:05;7.35;;;2.75;;
28343;SDS011;15597;50.914;6.638;2023-04-25T04:31:55;15.23;;;4.18;;
28343;SDS011;15597;50.914;6.638;2023-04-25T04:34:20;9.73;;;3.53;;
28343;SDS011;15597;50.914;6.638;2023-04-25T04:36:46;6.50;;;2.67;;
28343;SDS011;15597;50.914;6.638;2023-04-25T04:39:12;7.57;;;2.78;;
28343;SDS011;15597;50.914;6.638;2023-04-25T04:42:02;11.95;;;3.53;;
28343;SDS011;15597;50.914;6.638;2023-04-25T04:44:51;10.77;;;3.50;;
28343;SDS011;15597;50.914;6.638;2023-04-25T04:47:26;13.30;;;4.00;;
28343;SDS011;15597;50.914;6.638;2023-04-25T04:50:13;8.00;;;2.72;;
28343;SDS011;15597;50.914;6.638;2023-04-25T04:53:01;9.48;;;2.92;;
28343;SDS011;15597;50.914;6.638;2023-04-25T04:55:37;10.20;;;2.78;;
28343;SDS011;15597;50.914;6.638;2023-04-25T04:58:21;16.50;;;3.60;;
28343;SDS011;15597;50.914;6.638;2023-04-25T05:01:04;13.30;;;3.72;;
28343;SDS011;15597;50.914;6.638;2023-04-25T05:03:52;8.43;;;3.50;;
28343;SDS011;15597;50.914;6.638;2023-04-25T05:06:44;10.30;;;3.15;;
28343;SDS011;15597;50.914;6.638;2023-04-25T05:09:40;6.55;;;2.22;;
28343;SDS011;15597;50.914;6.638;2023-04-25T05:12:36;7.32;;;2.72;;
28343;SDS011;15597;50.914;6.638;2023-04-25T05:15:07;7.38;;;2.35;;
28343;SDS011;15597;50.914;6.638;2023-04-25T05:17:50;13.38;;;3.08;;
28343;SDS011;15597;50.914;6.638;2023-04-25T05:20:33;9.38;;;2.70;;
28343;SDS011;15597;50.914;6.638;2023-04-25T05:23:01;13.30;;;3.05;;
28343;SDS011;15597;50.914;6.638;2023-04-25T05:25:50;12.25;;;3.67;;
28343;SDS011;15597;50.914;6.638;2023-04-25T05:28:36;11.80;;;3.22;;
28343;SDS011;15597;50.914;6.638;2023-04-25T05:31:28;9.38;;;2.90;;
28343;SDS011;15597;50.914;6.638;2023-04-25T05:33:59;12.13;;;3.05;;
28343;SDS011;15597;50.914;6.638;2023-04-25T05:36:35;8.82;;;2.35;;
28343;SDS011;15597;50.914;6.638;2023-04-25T05:39:01;13.38;;;3.17;;
28343;SDS011;15597;50.914;6.638;2023-04-25T05:41:47;8.32;;;2.40;;
28343;SDS011;15597;50.914;6.638;2023-04-25T05:44:40;14.90;;;3.35;;
28343;SDS011;15597;50.914;6.638;2023-04-25T05:47:19;9.90;;;3.03;;
28343;SDS011;15597;50.914;6.638;2023-04-25T05:50:04;14.32;;;3.83;;
28343;SDS011;15597;50.914;6.638;2023-04-25T05:52:55;7.85;;;2.55;;
28343;SDS011;15597;50.914;6.638;2023-04-25T05:55:28;12.65;;;3.25;;
28343;SDS011;15597;50.914;6.638;2023-04-25T05:57:54;8.32;;;2.78;;
28343;SDS011;15597;50.914;6.638;2023-04-25T06:00:21;10.27;;;3.30;;
28343;SDS011;15597;50.914;6.638;2023-04-25T06:02:48;8.88;;;2.50;;
28343;SDS011;15597;50.914;6.638;2023-04-25T06:05:14;7.03;;;1.95;;
28343;SDS011;15597;50.914;6.638;2023-04-25T06:07:40;6.97;;;2.70;;
28343;SDS011;15597;50.914;6.638;2023-04-25T06:10:06;10.27;;;2.95;;
28343;SDS011;15597;50.914;6.638;2023-04-25T06:12:32;14.98;;;3.78;;
28343;SDS011;15597;50.914;6.638;2023-04-25T06:14:59;8.45;;;2.80;;
28343;SDS011;15597;50.914;6.638;2023-04-25T06:17:25;9.48;;;2.38;;
28343;SDS011;15597;50.914;6.638;2023-04-25T06:19:51;9.23;;;2.53;;
28343;SDS011;15597;50.914;6.638;2023-04-25T06:22:17;10.10;;;2.60;;
28343;SDS011;15597;50.914;6.638;2023-04-25T06:24:42;8.52;;;2.70;;
28343;SDS011;15597;50.914;6.638;2023-04-25T06:27:08;11.27;;;2.95;;
28343;SDS011;15597;50.914;6.638;2023-04-25T06:29:34;10.38;;;2.40;;
28343;SDS011;15597;50.914;6.638;2023-04-25T06:31:59;7.22;;;2.00;;
28343;SDS011;15597;50.914;6.638;2023-04-25T06:34:25;8.45;;;2.72;;
28343;SDS011;15597;50.914;6.638;2023-04-25T06:36:51;8.88;;;2.58;;
28343;SDS011;15597;50.914;6.638;2023-04-25T06:39:16;11.98;;;2.95;;
28343;SDS011;15597;50.914;6.638;2023-04-25T06:41:42;10.35;;;3.20;;
28343;SDS011;15597;50.914;6.638;2023-04-25T06:44:25;9.90;;;2.70;;
28343;SDS011;15597;50.914;6.638;2023-04-25T06:46:52;13.32;;;3.90;;
28343;SDS011;15597;50.914;6.638;2023-04-25T06:49:18;6.00;;;2.22;;
28343;SDS011;15597;50.914;6.638;2023-04-25T06:51:44;11.13;;;3.83;;
28343;SDS011;15597;50.914;6.638;2023-04-25T06:54:10;10.52;;;2.60;;
28343;SDS011;15597;50.914;6.638;2023-04-25T06:56:43;10.00;;;2.55;;
28343;SDS011;15597;50.914;6.638;2023-04-25T06:59:13;7.05;;;2.60;;
28343;SDS011;15597;50.914;6.638;2023-04-25T07:01:40;10.55;;;2.58;;
28343;SDS011;15597;50.914;6.638;2023-04-25T07:04:14;11.98;;;2.85;;
28343;SDS011;15597;50.914;6.638;2023-04-25T07:06:45;9.82;;;2.40;;
28343;SDS011;15597;50.914;6.638;2023-04-25T07:09:15;8.23;;;2.28;;
28343;SDS011;15597;50.914;6.638;2023-04-25T07:11:44;10.23;;;2.45;;
28343;SDS011;15597;50.914;6.638;2023-04-25T07:14:10;7.45;;;2.38;;
28343;SDS011;15597;50.914;6.638;2023-04-25T07:16:35;11.85;;;2.55;;
28343;SDS011;15597;50.914;6.638;2023-04-25T07:19:01;8.93;;;2.55;;
28343;SDS011;15597;50.914;6.638;2023-04-25T07:21:27;6.70;;;2.10;;
28343;SDS011;15597;50.914;6.638;2023-04-25T07:23:54;10.05;;;2.13;;
28343;SDS011;15597;50.914;6.638;2023-04-25T07:26:25;9.20;;;2.67;;
28343;SDS011;15597;50.914;6.638;2023-04-25T07:29:26;6.20;;;2.30;;
28343;SDS011;15597;50.914;6.638;2023-04-25T07:31:51;12.00;;;2.42;;
28343;SDS011;15597;50.914;6.638;2023-04-25T07:34:19;8.07;;;2.30;;
28343;SDS011;15597;50.914;6.638;2023-04-25T07:36:46;12.27;;;2.40;;
28343;SDS011;15597;50.914;6.638;2023-04-25T07:39:12;9.25;;;2.70;;
28343;SDS011;15597;50.914;6.638;2023-04-25T07:41:38;7.80;;;2.35;;
28343;SDS011;15597;50.914;6.638;2023-04-25T07:44:04;9.02;;;2.30;;
28343;SDS011;15597;50.914;6.638;2023-04-25T07:46:33;7.50;;;2.17;;
28343;SDS011;15597;50.914;6.638;2023-04-25T07:48:59;7.90;;;1.90;;
28343;SDS011;15597;50.914;6.638;2023-04-25T07:51:25;14.15;;;2.38;;
28343;SDS011;15597;50.914;6.638;2023-04-25T07:53:54;12.68;;;2.78;;
28343;SDS011;15597;50.914;6.638;2023-04-25T07:56:20;12.45;;;2.17;;
28343;SDS011;15597;50.914;6.638;2023-04-25T07:58:48;6.55;;;1.95;;
28343;SDS011;15597;50.914;6.638;2023-04-25T08:01:15;9.70;;;2.15;;
28343;SDS011;15597;50.914;6.638;2023-04-25T08:03:52;8.50;;;2.22;;
28343;SDS011;15597;50.914;6.638;2023-04-25T08:06:33;9.73;;;2.10;;
28343;SDS011;15597;50.914;6.638;2023-04-25T08:09:07;8.63;;;2.00;;
28343;SDS011;15597;50.914;6.638;2023-04-25T08:11:37;6.70;;;1.95;;
28343;SDS011;15597;50.914;6.638;2023-04-25T08:14:03;7.55;;;2.25;;
28343;SDS011;15597;50.914;6.638;2023-04-25T08:18:58;6.72;;;1.70;;
28343;SDS011;15597;50.914;6.638;2023-04-25T08:21:25;6.13;;;1.98;;
28343;SDS011;15597;50.914;6.638;2023-04-25T08:23:54;9.25;;;2.03;;
28343;SDS011;15597;50.914;6.638;2023-04-25T08:26:27;6.88;;;1.70;;
28343;SDS011;15597;50.914;6.638;2023-04-25T08:28:53;12.77;;;2.53;;
28343;SDS011;15597;50.914;6.638;2023-04-25T08:31:21;6.93;;;2.13;;
28343;SDS011;15597;50.914;6.638;2023-04-25T08:33:56;11.82;;;2.53;;
28343;SDS011;15597;50.914;6.638;2023-04-25T08:36:40;6.88;;;1.80;;
28343;SDS011;15597;50.914;6.638;2023-04-25T08:39:37;5.47;;;1.73;;
28343;SDS011;15597;50.914;6.638;2023-04-25T08:42:20;8.05;;;1.95;;
28343;SDS011;15597;50.914;6.638;2023-04-25T08:44:47;8.80;;;2.30;;
28343;SDS011;15597;50.914;6.638;2023-04-25T08:47:14;7.38;;;1.80;;
28343;SDS011;15597;50.914;6.638;2023-04-25T08:49:45;5.47;;;2.00;;
28343;SDS011;15597;50.914;6.638;2023-04-25T08:52:11;7.00;;;1.52;;
28343;SDS011;15597;50.914;6.638;2023-04-25T08:54:38;5.40;;;1.52;;
28343;SDS011;15597;50.914;6.638;2023-04-25T08:57:10;10.38;;;1.80;;
28343;SDS011;15597;50.914;6.638;2023-04-25T08:59:36;8.65;;;1.65;;
28343;SDS011;15597;50.914;6.638;2023-04-25T09:02:04;5.25;;;1.85;;
28343;SDS011;15597;50.914;6.638;2023-04-25T09:04:31;8.00;;;1.98;;
28343;SDS011;15597;50.914;6.638;2023-04-25T09:06:57;7.25;;;1.60;;
28343;SDS011;15597;50.914;6.638;2023-04-25T09:09:24;9.15;;;1.70;;
28343;SDS011;15597;50.914;6.638;2023-04-25T09:11:49;8.93;;;1.80;;
28343;SDS011;15597;50.914;6.638;2023-04-25T09:14:19;7.22;;;1.80;;
28343;SDS011;15597;50.914;6.638;2023-04-25T09:17:06;8.05;;;2.00;;
28343;SDS011;15597;50.914;6.638;2023-04-25T09:19:53;8.32;;;2.08;;
28343;SDS011;15597;50.914;6.638;2023-04-25T09:22:26;9.68;;;2.28;;
28343;SDS011;15597;50.914;6.638;2023-04-25T09:24:51;8.77;;;1.73;;
28343;SDS011;15597;50.914;6.638;2023-04-25T09:27:19;6.93;;;1.83;;
28343;SDS011;15597;50.914;6.638;2023-04-25T09:29:50;5.22;;;2.00;;
28343;SDS011;15597;50.914;6.638;2023-04-25T09:32:23;6.30;;;1.67;;
28343;SDS011;15597;50.914;6.638;2023-04-25T09:34:55;6.18;;;1.67;;
28343;SDS011;15597;50.914;6.638;2023-04-25T09:37:26;7.45;;;1.92;;
28343;SDS011;15597;50.914;6.638;2023-04-25T09:40:31;8.23;;;2.03;;
28343;SDS011;15597;50.914;6.638;2023-04-25T09:43:10;6.88;;;1.60;;
28343;SDS011;15597;50.914;6.638;2023-04-25T09:45:46;6.78;;;2.20;;
28343;SDS011;15597;50.914;6.638;2023-04-25T09:48:23;8.20;;;1.83;;
28343;SDS011;15597;50.914;6.638;2023-04-25T09:51:06;6.15;;;1.67;;
28343;SDS011;15597;50.914;6.638;2023-04-25T09:53:40;6.95;;;1.50;;
28343;SDS011;15597;50.914;6.638;2023-04-25T09:56:19;9.18;;;1.80;;
28343;SDS011;15597;50.914;6.638;2023-04-25T09:58:48;5.28;;;1.55;;
28343;SDS011;15597;50.914;6.638;2023-04-25T10:01:15;8.38;;;1.85;;
28343;SDS011;15597;50.914;6.638;2023-04-25T10:03:57;7.18;;;2.17;;
28343;SDS011;15597;50.914;6.638;2023-04-25T10:06:48;6.68;;;1.70;;
28343;SDS011;15597;50.914;6.638;2023-04-25T10:09:16;7.45;;;1.90;;
28343;SDS011;15597;50.914;6.638;2023-04-25T10:11:45;8.43;;;1.73;;
28343;SDS011;15597;50.914;6.638;2023-04-25T10:14:13;5.82;;;1.50;;
28343;SDS011;15597;50.914;6.638;2023-04-25T10:16:40;8.35;;;2.08;;
28343;SDS011;15597;50.914;6.638;2023-04-25T10:19:07;10.85;;;2.15;;
28343;SDS011;15597;50.914;6.638;2023-04-25T10:21:32;8.70;;;1.85;;
28343;SDS011;15597;50.914;6.638;2023-04-25T10:24:00;7.22;;;1.85;;
28343;SDS011;15597;50.914;6.638;2023-04-25T10:26:26;5.80;;;1.40;;
28343;SDS011;15597;50.914;6.638;2023-04-25T10:28:59;5.95;;;1.70;;
28343;SDS011;15597;50.914;6.638;2023-04-25T10:31:26;5.47;;;1.50;;
28343;SDS011;15597;50.914;6.638;2023-04-25T10:33:52;8.35;;;1.90;;
28343;SDS011;15597;50.914;6.638;2023-04-25T10:36:19;7.30;;;1.63;;
28343;SDS011;15597;50.914;6.638;2023-04-25T10:38:47;6.47;;;1.80;;
28343;SDS011;15597;50.914;6.638;2023-04-25T10:41:18;6.53;;;1.65;;
28343;SDS011;15597;50.914;6.638;2023-04-25T10:43:45;5.13;;;1.50;;
28343;SDS011;15597;50.914;6.638;2023-04-25T10:46:18;8.90;;;1.75;;
28343;SDS011;15597;50.914;6.638;2023-04-25T10:48:49;7.43;;;1.65;;
28343;SDS011;15597;50.914;6.638;2023-04-25T10:51:26;7.20;;;1.90;;
28343;SDS011;15597;50.914;6.638;2023-04-25T10:56:23;6.13;;;2.03;;
28343;SDS011;15597;50.914;6.638;2023-04-25T10:58:51;6.07;;;1.88;;
28343;SDS011;15597;50.914;6.638;2023-04-25T11:01:29;8.25;;;1.98;;
28343;SDS011;15597;50.914;6.638;2023-04-25T11:04:01;6.88;;;1.63;;
28343;SDS011;15597;50.914;6.638;2023-04-25T11:07:31;7.15;;;1.83;;
28343;SDS011;15597;50.914;6.638;2023-04-25T11:09:23;6.45;;;1.55;;
28343;SDS011;15597;50.914;6.638;2023-04-25T11:11:55;6.57;;;1.80;;
28343;SDS011;15597;50.914;6.638;2023-04-25T11:14:23;8.20;;;1.67;;
28343;SDS011;15597;50.914;6.638;2023-04-25T11:16:52;7.20;;;1.60;;
28343;SDS011;15597;50.914;6.638;2023-04-25T11:19:22;8.52;;;1.88;;
28343;SDS011;15597;50.914;6.638;2023-04-25T11:21:49;7.65;;;1.92;;
28343;SDS011;15597;50.914;6.638;2023-04-25T11:24:17;10.93;;;1.80;;
28343;SDS011;15597;50.914;6.638;2023-04-25T11:26:43;7.35;;;1.65;;
28343;SDS011;15597;50.914;6.638;2023-04-25T11:29:12;6.47;;;1.70;;
28343;SDS011;15597;50.914;6.638;2023-04-25T11:31:38;4.97;;;1.40;;
28343;SDS011;15597;50.914;6.638;2023-04-25T11:34:03;7.88;;;1.85;;
28343;SDS011;15597;50.914;6.638;2023-04-25T11:36:29;4.82;;;1.60;;
28343;SDS011;15597;50.914;6.638;2023-04-25T11:38:56;6.60;;;1.58;;
28343;SDS011;15597;50.914;6.638;2023-04-25T11:41:22;5.53;;;1.60;;
28343;SDS011;15597;50.914;6.638;2023-04-25T11:43:48;8.13;;;1.80;;
28343;SDS011;15597;50.914;6.638;2023-04-25T11:46:15;4.32;;;1.45;;
28343;SDS011;15597;50.914;6.638;2023-04-25T11:48:41;6.25;;;1.63;;
28343;SDS011;15597;50.914;6.638;2023-04-25T11:51:07;6.05;;;1.60;;
28343;SDS011;15597;50.914;6.638;2023-04-25T11:53:33;5.35;;;1.70;;
28343;SDS011;15597;50.914;6.638;2023-04-25T11:56:00;7.43;;;1.65;;
28343;SDS011;15597;50.914;6.638;2023-04-25T11:58:26;5.57;;;1.98;;
28343;SDS011;15597;50.914;6.638;2023-04-25T12:00:52;4.65;;;1.35;;
28343;SDS011;15597;50.914;6.638;2023-04-25T12:03:18;5.65;;;1.52;;
28343;SDS011;15597;50.914;6.638;2023-04-25T12:05:44;4.03;;;1.45;;
28343;SDS011;15597;50.914;6.638;2023-04-25T12:08:14;7.72;;;1.60;;
28343;SDS011;15597;50.914;6.638;2023-04-25T12:10:42;6.00;;;1.60;;
28343;SDS011;15597;50.914;6.638;2023-04-25T12:13:20;5.00;;;1.48;;
28343;SDS011;15597;50.914;6.638;2023-04-25T12:15:50;4.70;;;1.30;;
28343;SDS011;15597;50.914;6.638;2023-04-25T12:18:20;6.00;;;1.42;;
28343;SDS011;15597;50.914;6.638;2023-04-25T12:20:49;3.35;;;1.30;;
28343;SDS011;15597;50.914;6.638;2023-04-25T12:23:14;4.88;;;1.38;;
28343;SDS011;15597;50.914;6.638;2023-04-25T12:25:41;5.55;;;1.42;;
28343;SDS011;15597;50.914;6.638;2023-04-25T12:33:26;7.68;;;1.60;;
28343;SDS011;15597;50.914;6.638;2023-04-25T12:35:54;6.63;;;1.70;;
28343;SDS011;15597;50.914;6.638;2023-04-25T12:38:39;4.32;;;1.23;;
28343;SDS011;15597;50.914;6.638;2023-04-25T12:41:06;3.03;;;1.15;;
28343;SDS011;15597;50.914;6.638;2023-04-25T12:43:32;5.78;;;1.30;;
28343;SDS011;15597;50.914;6.638;2023-04-25T12:45:58;6.15;;;1.60;;
28343;SDS011;15597;50.914;6.638;2023-04-25T12:48:24;5.38;;;1.38;;
28343;SDS011;15597;50.914;6.638;2023-04-25T12:50:50;13.00;;;1.88;;
28343;SDS011;15597;50.914;6.638;2023-04-25T12:53:17;6.30;;;1.40;;
28343;SDS011;15597;50.914;6.638;2023-04-25T12:55:44;3.95;;;1.20;;
28343;SDS011;15597;50.914;6.638;2023-04-25T12:58:17;4.18;;;1.45;;
28343;SDS011;15597;50.914;6.638;2023-04-25T13:00:44;6.75;;;1.73;;
28343;SDS011;15597;50.914;6.638;2023-04-25T13:03:10;6.25;;;1.45;;
28343;SDS011;15597;50.914;6.638;2023-04-25T13:05:37;3.50;;;1.15;;
28343;SDS011;15597;50.914;6.638;2023-04-25T13:08:03;6.43;;;1.33;;
28343;SDS011;15597;50.914;6.638;2023-04-25T13:10:29;3.83;;;1.30;;
28343;SDS011;15597;50.914;6.638;2023-04-25T13:12:55;6.35;;;1.42;;
28343;SDS011;15597;50.914;6.638;2023-04-25T13:15:21;6.15;;;1.42;;
28343;SDS011;15597;50.914;6.638;2023-04-25T13:17:47;3.63;;;1.40;;
28343;SDS011;15597;50.914;6.638;2023-04-25T13:20:13;5.07;;;1.33;;
28343;SDS011;15597;50.914;6.638;2023-04-25T13:22:40;6.45;;;1.70;;
28343;SDS011;15597;50.914;6.638;2023-04-25T13:25:06;4.55;;;1.50;;
28343;SDS011;15597;50.914;6.638;2023-04-25T13:27:33;4.78;;;1.50;;
28343;SDS011;15597;50.914;6.638;2023-04-25T13:30:01;3.88;;;1.50;;
28343;SDS011;15597;50.914;6.638;2023-04-25T13:32:30;6.30;;;1.38;;
28343;SDS011;15597;50.914;6.638;2023-04-25T13:34:55;5.25;;;1.58;;
28343;SDS011;15597;50.914;6.638;2023-04-25T13:37:21;4.07;;;1.30;;
28343;SDS011;15597;50.914;6.638;2023-04-25T13:39:49;5.90;;;1.60;;
28343;SDS011;15597;50.914;6.638;2023-04-25T13:42:16;4.70;;;1.50;;
28343;SDS011;15597;50.914;6.638;2023-04-25T13:44:41;4.30;;;1.40;;
28343;SDS011;15597;50.914;6.638;2023-04-25T13:47:07;3.83;;;1.40;;
28343;SDS011;15597;50.914;6.638;2023-04-25T13:49:33;3.65;;;1.20;;
28343;SDS011;15597;50.914;6.638;2023-04-25T13:51:58;6.22;;;1.52;;
28343;SDS011;15597;50.914;6.638;2023-04-25T13:54:24;4.63;;;1.48;;
28343;SDS011;15597;50.914;6.638;2023-04-25T13:56:51;7.53;;;1.40;;
28343;SDS011;15597;50.914;6.638;2023-04-25T13:59:17;5.47;;;1.35;;
28343;SDS011;15597;50.914;6.638;2023-04-25T14:01:43;11.02;;;3.55;;
28343;SDS011;15597;50.914;6.638;2023-04-25T14:04:08;6.55;;;1.80;;
28343;SDS011;15597;50.914;6.638;2023-04-25T14:06:34;7.20;;;1.90;;
28343;SDS011;15597;50.914;6.638;2023-04-25T14:09:00;5.43;;;1.60;;
28343;SDS011;15597;50.914;6.638;2023-04-25T14:11:26;4.43;;;1.50;;
28343;SDS011;15597;50.914;6.638;2023-04-25T14:13:52;5.45;;;1.58;;
28343;SDS011;15597;50.914;6.638;2023-04-25T14:16:18;5.63;;;1.50;;
28343;SDS011;15597;50.914;6.638;2023-04-25T14:18:44;5.25;;;1.73;;
28343;SDS011;15597;50.914;6.638;2023-04-25T14:21:10;5.07;;;1.60;;
28343;SDS011;15597;50.914;6.638;2023-04-25T14:23:36;3.67;;;1.38;;
28343;SDS011;15597;50.914;6.638;2023-04-25T14:26:01;5.38;;;1.88;;
28343;SDS011;15597;50.914;6.638;2023-04-25T14:28:27;9.93;;;1.85;;
28343;SDS011;15597;50.914;6.638;2023-04-25T14:30:53;5.15;;;1.30;;
28343;SDS011;15597;50.914;6.638;2023-04-25T14:33:19;5.13;;;1.33;;
28343;SDS011;15597;50.914;6.638;2023-04-25T14:35:44;3.97;;;1.23;;
28343;SDS011;15597;50.914;6.638;2023-04-25T14:38:10;3.20;;;1.20;;
28343;SDS011;15597;50.914;6.638;2023-04-25T14:40:36;5.20;;;1.35;;
28343;SDS011;15597;50.914;6.638;2023-04-25T14:43:02;4.88;;;1.40;;
28343;SDS011;15597;50.914;6.638;2023-04-25T14:45:28;4.15;;;1.23;;
28343;SDS011;15597;50.914;6.638;2023-04-25T14:47:54;5.38;;;1.23;;
28343;SDS011;15597;50.914;6.638;2023-04-25T14:50:20;15.30;;;3.35;;
28343;SDS011;15597;50.914;6.638;2023-04-25T14:52:46;7.30;;;2.22;;
28343;SDS011;15597;50.914;6.638;2023-04-25T14:55:11;16.75;;;4.80;;
28343;SDS011;15597;50.914;6.638;2023-04-25T14:57:37;9.70;;;2.75;;
28343;SDS011;15597;50.914;6.638;2023-04-25T15:00:04;8.00;;;2.30;;
28343;SDS011;15597;50.914;6.638;2023-04-25T15:02:35;6.10;;;1.73;;
28343;SDS011;15597;50.914;6.638;2023-04-25T15:05:02;6.00;;;1.85;;
28343;SDS011;15597;50.914;6.638;2023-04-25T15:07:28;5.63;;;1.70;;